createdAt,value
2023-04-18T00:02:00.461Z,16.98
2023-04-18T00:04:27.870Z,16.92
2023-04-18T00:06:55.772Z,17.80
2023-04-18T00:09:24.575Z,17.38
2023-04-18T00:11:52.224Z,17.83
2023-04-18T00:14:20.725Z,16.73
2023-04-18T00:16:47.974Z,17.02
2023-04-18T00:19:15.577Z,17.45
2023-04-18T00:21:44.693Z,17.35
2023-04-18T00:24:12.333Z,13.57
2023-04-18T00:26:39.598Z,16.33
2023-04-18T00:29:06.765Z,16.58
2023-04-18T00:31:33.873Z,16.73
2023-04-18T00:34:01.004Z,16.83
2023-04-18T00:36:28.209Z,15.45
2023-04-18T00:38:55.348Z,14.93
2023-04-18T00:41:22.846Z,14.98
2023-04-18T00:43:49.979Z,15.40
2023-04-18T00:46:17.137Z,15.40
2023-04-18T00:48:44.270Z,14.68
2023-04-18T00:51:12.146Z,14.77
2023-04-18T00:53:39.343Z,14.48
2023-04-18T00:56:07.526Z,13.50
2023-04-18T00:58:34.654Z,15.10
2023-04-18T01:01:01.796Z,14.68
2023-04-18T01:03:29.128Z,14.13
2023-04-18T01:05:57.497Z,14.15
2023-04-18T01:08:25.586Z,14.65
2023-04-18T01:10:52.774Z,14.32
2023-04-18T01:13:21.435Z,14.68
2023-04-18T01:15:49.273Z,14.25
2023-04-18T01:18:16.855Z,14.45
2023-04-18T01:20:50.665Z,14.57
2023-04-18T01:23:18.969Z,15.25
2023-04-18T01:25:46.511Z,15.23
2023-04-18T01:28:14.675Z,15.95
2023-04-18T01:30:41.856Z,14.73
2023-04-18T01:33:09.044Z,15.43
2023-04-18T01:35:36.271Z,15.48
2023-04-18T01:38:03.736Z,14.63
2023-04-18T01:40:30.914Z,14.35
2023-04-18T01:42:58.065Z,13.93
2023-04-18T01:45:25.380Z,14.32
2023-04-18T01:47:52.571Z,13.82
2023-04-18T01:50:19.901Z,14.98
2023-04-18T01:52:47.110Z,13.93
2023-04-18T01:55:14.242Z,14.27
2023-04-18T01:57:41.536Z,14.15
2023-04-18T02:00:08.988Z,13.05
2023-04-18T02:02:36.327Z,15.07
2023-04-18T02:05:03.618Z,13.75
2023-04-18T02:07:30.772Z,15.10
2023-04-18T02:09:57.930Z,14.18
2023-04-18T02:12:25.282Z,14.10
2023-04-18T02:14:53.558Z,14.52
2023-04-18T02:17:23.948Z,15.00
2023-04-18T02:19:51.773Z,15.10
2023-04-18T02:22:19.185Z,15.45
2023-04-18T02:24:46.359Z,15.55
2023-04-18T02:27:13.601Z,14.88
2023-04-18T02:29:40.916Z,15.38
2023-04-18T02:32:09.095Z,15.68
2023-04-18T02:34:36.831Z,15.50
2023-04-18T02:37:04.631Z,14.40
2023-04-18T02:39:31.761Z,14.93
2023-04-18T02:41:59.056Z,16.15
2023-04-18T02:44:26.214Z,16.23
2023-04-18T02:46:53.407Z,16.15
2023-04-18T02:49:20.660Z,13.45
2023-04-18T02:51:47.907Z,17.35
2023-04-18T02:54:15.301Z,15.82
2023-04-18T02:56:42.924Z,15.82
2023-04-18T02:59:10.596Z,17.17
2023-04-18T03:01:37.839Z,16.73
2023-04-18T03:04:05.040Z,14.68
2023-04-18T03:06:32.177Z,16.73
2023-04-18T03:08:59.485Z,15.93
2023-04-18T03:11:32.615Z,15.32
2023-04-18T03:13:59.780Z,16.20
2023-04-18T03:16:27.259Z,17.27
2023-04-18T03:18:54.445Z,17.38
2023-04-18T03:21:21.553Z,16.27
2023-04-18T03:23:48.715Z,15.05
2023-04-18T03:26:16.045Z,16.77
2023-04-18T03:28:43.152Z,16.00
2023-04-18T03:31:10.536Z,15.60
2023-04-18T03:33:39.143Z,15.45
2023-04-18T03:36:06.634Z,15.73
2023-04-18T03:38:33.722Z,16.73
2023-04-18T03:41:00.906Z,17.60
2023-04-18T03:43:27.977Z,15.65
2023-04-18T03:45:55.261Z,15.77
2023-04-18T03:48:22.488Z,15.70
2023-04-18T03:50:50.620Z,16.35
2023-04-18T03:53:17.819Z,16.08
2023-04-18T03:55:44.925Z,16.13
2023-04-18T03:58:12.318Z,17.23
2023-04-18T04:00:39.436Z,15.25
2023-04-18T04:03:07.218Z,17.52
2023-04-18T04:05:34.535Z,15.40
2023-04-18T04:08:01.675Z,14.30
2023-04-18T04:10:28.799Z,16.52
2023-04-18T04:12:56.037Z,15.00
2023-04-18T04:15:23.126Z,17.98
2023-04-18T04:17:50.993Z,16.15
2023-04-18T04:20:24.069Z,17.25
2023-04-18T04:22:55.356Z,16.80
2023-04-18T04:25:24.260Z,16.05
2023-04-18T04:27:53.628Z,17.30
2023-04-18T04:30:21.461Z,18.17
2023-04-18T04:32:49.365Z,15.77
2023-04-18T04:35:16.626Z,17.42
2023-04-18T04:37:44.184Z,17.25
2023-04-18T04:40:11.444Z,17.98
2023-04-18T04:42:40.998Z,16.77
2023-04-18T04:45:09.374Z,16.88
2023-04-18T04:47:36.740Z,16.48
2023-04-18T04:50:06.159Z,14.15
2023-04-18T04:52:33.353Z,18.65
2023-04-18T04:55:00.554Z,16.88
2023-04-18T04:57:27.640Z,17.70
2023-04-18T04:59:54.811Z,17.80
2023-04-18T05:02:23.332Z,15.48
2023-04-18T05:04:50.953Z,17.77
2023-04-18T05:07:18.133Z,15.60
2023-04-18T05:09:45.214Z,15.75
2023-04-18T05:12:12.379Z,15.35
2023-04-18T05:14:39.547Z,14.10
2023-04-18T05:17:07.581Z,15.38
2023-04-18T05:19:34.734Z,16.25
2023-04-18T05:22:01.954Z,17.33
2023-04-18T05:24:29.698Z,17.88
2023-04-18T05:26:57.099Z,17.83
2023-04-18T05:29:24.205Z,14.50
2023-04-18T05:31:51.314Z,16.08
2023-04-18T05:34:18.499Z,17.35
2023-04-18T05:36:47.664Z,13.55
2023-04-18T05:39:14.945Z,17.55
2023-04-18T05:41:42.892Z,15.32
2023-04-18T05:44:10.062Z,17.60
2023-04-18T05:46:37.288Z,17.23
2023-04-18T05:49:04.481Z,18.23
2023-04-18T05:51:31.964Z,15.20
2023-04-18T05:53:59.107Z,18.00
2023-04-18T05:56:26.418Z,11.30
2023-04-18T05:58:53.544Z,17.60
2023-04-18T06:01:21.332Z,18.58
2023-04-18T06:03:48.701Z,17.67
2023-04-18T06:06:16.204Z,18.02
2023-04-18T06:08:43.574Z,16.25
2023-04-18T06:11:10.856Z,34.95
2023-04-18T06:13:38.349Z,19.08
2023-04-18T06:16:05.928Z,15.65
2023-04-18T06:18:33.070Z,17.50
2023-04-18T06:21:00.273Z,17.33
2023-04-18T06:23:27.381Z,17.23
2023-04-18T06:25:54.570Z,18.23
2023-04-18T06:28:21.726Z,15.32
2023-04-18T06:30:48.821Z,13.98
2023-04-18T06:33:16.109Z,16.90
2023-04-18T06:35:43.308Z,15.65
2023-04-18T06:38:11.629Z,17.25
2023-04-18T06:40:38.848Z,17.25
2023-04-18T06:43:05.970Z,15.73
2023-04-18T06:45:33.157Z,17.73
2023-04-18T06:48:00.436Z,14.77
2023-04-18T06:50:27.606Z,18.38
2023-04-18T06:52:54.824Z,16.35
2023-04-18T06:55:21.988Z,18.02
2023-04-18T06:57:49.261Z,18.60
2023-04-18T07:00:16.555Z,17.67
2023-04-18T07:02:43.905Z,17.38
2023-04-18T07:05:11.396Z,15.80
2023-04-18T07:07:38.545Z,16.35
2023-04-18T07:10:06.780Z,14.88
2023-04-18T07:12:34.004Z,14.07
2023-04-18T07:15:01.102Z,14.30
2023-04-18T07:17:28.265Z,15.07
2023-04-18T07:19:55.445Z,17.65
2023-04-18T07:22:22.620Z,15.27
2023-04-18T07:24:49.796Z,17.52
2023-04-18T07:27:17.004Z,17.50
2023-04-18T07:29:44.068Z,14.98
2023-04-18T07:32:11.162Z,17.23
2023-04-18T07:34:40.256Z,18.95
2023-04-18T07:37:07.445Z,16.13
2023-04-18T07:39:36.146Z,14.80
2023-04-18T07:42:06.340Z,16.00
2023-04-18T07:44:35.712Z,17.70
2023-04-18T07:47:02.890Z,12.52
2023-04-18T07:49:30.297Z,14.30
2023-04-18T07:51:57.756Z,14.02
2023-04-18T07:54:25.345Z,15.00
2023-04-18T07:56:52.495Z,12.95
2023-04-18T07:59:19.826Z,14.55
2023-04-18T08:01:47.082Z,16.05
2023-04-18T08:04:15.116Z,16.58
2023-04-18T08:06:42.305Z,14.10
2023-04-18T08:09:09.657Z,14.35
2023-04-18T08:11:36.798Z,14.45
2023-04-18T08:14:04.001Z,15.20
2023-04-18T08:16:31.298Z,14.68
2023-04-18T08:18:58.451Z,11.02
2023-04-18T08:21:26.830Z,14.18
2023-04-18T08:23:53.933Z,13.55
2023-04-18T08:26:21.872Z,16.15
2023-04-18T08:28:49.049Z,14.10
2023-04-18T08:31:17.140Z,16.05
2023-04-18T08:33:44.314Z,11.85
2023-04-18T08:36:12.078Z,15.43
2023-04-18T08:38:39.226Z,14.30
2023-04-18T08:41:06.428Z,13.93
2023-04-18T08:43:33.604Z,13.90
2023-04-18T08:46:01.170Z,12.95
2023-04-18T08:48:28.506Z,13.48
2023-04-18T08:50:59.182Z,15.65
2023-04-18T08:53:27.196Z,14.35
2023-04-18T08:55:56.271Z,15.90
2023-04-18T08:58:24.370Z,14.88
2023-04-18T09:00:55.342Z,15.73
2023-04-18T09:03:41.572Z,15.52
2023-04-18T09:06:09.723Z,15.50
2023-04-18T09:08:36.877Z,13.95
2023-04-18T09:11:31.727Z,12.10
2023-04-18T09:13:59.498Z,13.48
2023-04-18T09:16:27.862Z,14.13
2023-04-18T09:19:14.590Z,10.50
2023-04-18T09:21:44.329Z,12.20
2023-04-18T09:24:18.092Z,13.15
2023-04-18T09:26:45.245Z,12.27
2023-04-18T09:29:13.583Z,12.43
2023-04-18T09:31:57.643Z,12.00
2023-04-18T09:34:26.320Z,10.80
2023-04-18T09:37:29.013Z,11.25
2023-04-18T09:39:56.384Z,10.82
2023-04-18T09:42:23.918Z,10.98
2023-04-18T09:45:04.366Z,11.15
2023-04-18T09:47:32.266Z,11.23
2023-04-18T09:49:59.512Z,10.70
2023-04-18T09:52:26.689Z,11.38
2023-04-18T09:54:58.612Z,11.30
2023-04-18T09:57:29.777Z,10.40
2023-04-18T10:00:02.529Z,10.95
2023-04-18T10:04:57.044Z,9.40
2023-04-18T10:07:25.000Z,9.35
2023-04-18T10:09:52.665Z,10.02
2023-04-18T10:12:20.252Z,8.70
2023-04-18T10:14:47.458Z,10.20
2023-04-18T10:17:15.332Z,11.05
2023-04-18T10:19:44.385Z,8.98
2023-04-18T10:22:12.924Z,8.80
2023-04-18T10:24:49.687Z,8.85
2023-04-18T10:27:17.947Z,9.45
2023-04-18T10:29:49.664Z,8.88
2023-04-18T10:32:20.776Z,7.63
2023-04-18T10:34:48.121Z,8.70
2023-04-18T10:37:15.381Z,8.07
2023-04-18T10:39:49.954Z,8.15
2023-04-18T10:42:17.283Z,8.02
2023-04-18T10:44:44.415Z,8.13
2023-04-18T10:47:17.610Z,8.45
2023-04-18T10:49:53.605Z,8.10
2023-04-18T10:52:20.805Z,7.53
2023-04-18T10:54:51.797Z,6.05
2023-04-18T10:57:18.960Z,5.82
2023-04-18T10:59:49.313Z,7.85
2023-04-18T11:02:22.993Z,6.47
2023-04-18T11:04:57.276Z,9.13
2023-04-18T11:07:40.699Z,8.60
2023-04-18T11:10:09.129Z,5.63
2023-04-18T11:12:37.520Z,8.50
2023-04-18T11:15:10.756Z,8.00
2023-04-18T11:17:40.169Z,7.38
2023-04-18T11:20:12.801Z,8.15
2023-04-18T11:22:49.811Z,6.70
2023-04-18T11:25:17.644Z,7.10
2023-04-18T11:27:45.523Z,6.95
2023-04-18T11:30:13.300Z,5.82
2023-04-18T11:32:40.657Z,6.90
2023-04-18T11:35:11.894Z,6.53
2023-04-18T11:37:39.987Z,5.40
2023-04-18T11:40:09.316Z,5.97
2023-04-18T11:42:36.831Z,5.82
2023-04-18T11:45:04.409Z,6.00
2023-04-18T11:47:33.056Z,6.18
2023-04-18T11:50:01.431Z,5.78
2023-04-18T11:52:29.512Z,5.60
2023-04-18T11:54:57.019Z,5.40
2023-04-18T11:57:28.264Z,4.68
2023-04-18T11:59:59.502Z,4.57
2023-04-18T12:02:27.861Z,6.43
2023-04-18T12:04:57.507Z,5.07
2023-04-18T12:07:37.269Z,4.97
2023-04-18T12:10:06.060Z,4.47
2023-04-18T12:12:33.420Z,6.07
2023-04-18T12:15:01.386Z,5.15
2023-04-18T12:17:28.877Z,4.63
2023-04-18T12:19:56.115Z,4.78
2023-04-18T12:23:02.324Z,4.00
2023-04-18T12:25:29.432Z,4.72
2023-04-18T12:28:04.154Z,4.57
2023-04-18T12:30:32.351Z,4.43
2023-04-18T12:33:01.355Z,4.25
2023-04-18T12:35:29.482Z,4.70
2023-04-18T12:37:57.460Z,5.07
2023-04-18T12:40:26.277Z,5.15
2023-04-18T12:42:54.176Z,5.25
2023-04-18T12:45:21.920Z,5.28
2023-04-18T12:47:49.854Z,5.13
2023-04-18T12:50:23.892Z,4.22
2023-04-18T12:52:52.626Z,5.55
2023-04-18T12:55:20.656Z,4.32
2023-04-18T12:57:47.883Z,4.60
2023-04-18T13:00:15.124Z,5.00
2023-04-18T13:02:44.133Z,4.65
2023-04-18T13:05:12.427Z,5.07
2023-04-18T13:07:40.644Z,4.95
2023-04-18T13:10:08.899Z,5.25
2023-04-18T13:12:36.249Z,4.95
2023-04-18T13:15:03.617Z,4.93
2023-04-18T13:17:30.919Z,4.90
2023-04-18T13:19:58.161Z,4.93
2023-04-18T13:22:25.442Z,5.03
2023-04-18T13:24:53.099Z,5.03
2023-04-18T13:27:20.349Z,5.35
2023-04-18T13:29:47.534Z,5.80
2023-04-18T13:32:14.727Z,5.82
2023-04-18T13:34:46.578Z,5.63
2023-04-18T13:37:14.417Z,5.32
2023-04-18T13:39:41.971Z,4.20
2023-04-18T13:42:09.389Z,4.55
2023-04-18T13:44:37.221Z,5.18
2023-04-18T13:47:05.076Z,5.28
2023-04-18T13:49:32.684Z,5.32
2023-04-18T13:52:00.006Z,4.90
2023-04-18T13:54:28.017Z,4.72
2023-04-18T13:56:55.361Z,4.47
2023-04-18T13:59:22.460Z,5.22
2023-04-18T14:01:49.734Z,4.97
2023-04-18T14:04:17.103Z,3.63
2023-04-18T14:06:44.365Z,4.68
2023-04-18T14:09:11.576Z,4.85
2023-04-18T14:11:38.900Z,4.65
2023-04-18T14:14:06.916Z,4.00
2023-04-18T14:16:34.352Z,4.65
2023-04-18T14:19:02.385Z,4.68
2023-04-18T14:21:29.594Z,4.38
2023-04-18T14:23:56.900Z,4.07
2023-04-18T14:26:24.110Z,4.30
2023-04-18T14:28:51.250Z,4.45
2023-04-18T14:31:18.492Z,3.83
2023-04-18T14:33:46.286Z,4.20
2023-04-18T14:36:15.137Z,4.18
2023-04-18T14:38:42.500Z,3.97
2023-04-18T14:41:09.748Z,4.50
2023-04-18T14:43:37.039Z,4.03
2023-04-18T14:46:04.182Z,3.97
2023-04-18T14:48:31.406Z,3.97
2023-04-18T14:50:59.127Z,4.07
2023-04-18T14:53:27.107Z,4.63
2023-04-18T14:55:54.289Z,4.75
2023-04-18T14:58:21.623Z,5.32
2023-04-18T15:00:49.178Z,4.55
2023-04-18T15:03:16.915Z,5.03
2023-04-18T15:05:46.493Z,4.57
2023-04-18T15:08:14.571Z,5.82
2023-04-18T15:10:42.548Z,5.43
2023-04-18T15:13:10.976Z,5.85
2023-04-18T15:15:39.654Z,5.45
2023-04-18T15:18:08.255Z,5.05
2023-04-18T15:20:37.138Z,5.43
2023-04-18T15:23:04.337Z,6.22
2023-04-18T15:25:31.522Z,5.35
2023-04-18T15:27:58.776Z,5.82
2023-04-18T15:30:26.230Z,6.07
2023-04-18T15:32:54.021Z,6.00
2023-04-18T15:35:21.231Z,6.45
2023-04-18T15:37:49.094Z,8.10
2023-04-18T15:40:18.213Z,5.65
2023-04-18T15:42:45.982Z,6.30
2023-04-18T15:45:13.254Z,6.32
2023-04-18T15:47:41.329Z,6.28
2023-04-18T15:50:09.203Z,7.07
2023-04-18T15:52:36.713Z,6.90
2023-04-18T15:55:04.983Z,7.03
2023-04-18T15:57:32.732Z,5.68
2023-04-18T15:59:59.931Z,6.80
2023-04-18T16:02:27.184Z,5.97
2023-04-18T16:04:54.521Z,6.18
2023-04-18T16:07:21.804Z,7.10
2023-04-18T16:09:49.240Z,6.63
2023-04-18T16:12:16.414Z,7.10
2023-04-18T16:14:43.523Z,6.80
2023-04-18T16:17:10.638Z,4.88
2023-04-18T16:19:38.908Z,6.95
2023-04-18T16:22:07.153Z,5.93
2023-04-18T16:24:34.368Z,6.78
2023-04-18T16:27:01.504Z,7.10
2023-04-18T16:29:28.599Z,6.30
2023-04-18T16:31:55.911Z,5.68
2023-04-18T16:34:23.095Z,5.97
2023-04-18T16:36:51.176Z,6.70
2023-04-18T16:39:19.179Z,6.35
2023-04-18T16:41:46.492Z,6.45
2023-04-18T16:44:13.829Z,6.63
2023-04-18T16:46:41.190Z,6.82
2023-04-18T16:49:08.372Z,6.28
2023-04-18T16:51:37.158Z,6.32
2023-04-18T16:54:04.652Z,30.48
2023-04-18T16:56:31.870Z,12.02
2023-04-18T16:58:59.326Z,7.13
2023-04-18T17:01:26.436Z,6.50
2023-04-18T17:03:53.907Z,6.75
2023-04-18T17:06:22.734Z,6.68
2023-04-18T17:08:50.036Z,7.20
2023-04-18T17:11:17.147Z,5.18
2023-04-18T17:13:44.333Z,6.75
2023-04-18T17:16:11.453Z,7.15
2023-04-18T17:18:38.613Z,6.63
2023-04-18T17:21:05.732Z,6.20
2023-04-18T17:23:33.174Z,6.68
2023-04-18T17:26:00.509Z,7.10
2023-04-18T17:28:27.623Z,7.38
2023-04-18T17:30:57.249Z,7.00
2023-04-18T17:33:24.353Z,6.72
2023-04-18T17:35:51.945Z,7.18
2023-04-18T17:38:19.029Z,6.65
2023-04-18T17:40:46.159Z,7.28
2023-04-18T17:43:13.310Z,7.80
2023-04-18T17:45:42.108Z,8.80
2023-04-18T17:48:09.350Z,6.78
2023-04-18T17:50:38.009Z,7.88
2023-04-18T17:53:05.315Z,6.18
2023-04-18T17:55:32.472Z,6.55
2023-04-18T17:57:59.576Z,6.93
2023-04-18T18:00:26.692Z,7.88
2023-04-18T18:02:53.875Z,8.73
2023-04-18T18:05:21.136Z,8.68
2023-04-18T18:07:48.878Z,7.88
2023-04-18T18:10:23.532Z,8.45
2023-04-18T18:12:50.848Z,8.93
2023-04-18T18:15:18.936Z,7.10
2023-04-18T18:17:48.921Z,8.60
2023-04-18T18:20:16.099Z,7.55
2023-04-18T18:22:44.116Z,8.25
2023-04-18T18:25:11.379Z,8.93
2023-04-18T18:27:38.593Z,7.60
2023-04-18T18:30:06.769Z,7.63
2023-04-18T18:32:33.976Z,9.48
2023-04-18T18:35:01.777Z,9.77
2023-04-18T18:37:28.970Z,9.95
2023-04-18T18:39:59.906Z,9.10
2023-04-18T18:42:27.052Z,8.00
2023-04-18T18:44:54.193Z,7.65
2023-04-18T18:47:21.371Z,8.80
2023-04-18T18:49:48.778Z,8.68
2023-04-18T18:52:16.027Z,9.10
2023-04-18T18:54:43.149Z,8.82
2023-04-18T18:57:10.363Z,8.30
2023-04-18T18:59:37.540Z,10.32
2023-04-18T19:02:04.825Z,8.90
2023-04-18T19:04:32.522Z,8.90
2023-04-18T19:06:59.832Z,9.10
2023-04-18T19:09:27.320Z,13.50
2023-04-18T19:11:55.080Z,9.23
2023-04-18T19:14:22.155Z,9.32
2023-04-18T19:16:49.205Z,8.90
2023-04-18T19:19:17.446Z,9.05
2023-04-18T19:21:46.037Z,8.65
2023-04-18T19:24:13.511Z,8.88
2023-04-18T19:26:40.772Z,9.50
2023-04-18T19:29:08.256Z,8.38
2023-04-18T19:31:35.564Z,8.30
2023-04-18T19:34:02.786Z,8.85
2023-04-18T19:36:30.043Z,7.93
2023-04-18T19:38:57.311Z,8.10
2023-04-18T19:41:25.962Z,8.65
2023-04-18T19:43:53.602Z,9.13
2023-04-18T19:46:20.766Z,8.63
2023-04-18T19:48:47.877Z,9.30
2023-04-18T19:51:14.977Z,9.50
2023-04-18T19:53:42.158Z,8.75
2023-04-18T19:56:11.105Z,7.93
2023-04-18T19:58:46.020Z,9.52
2023-04-18T20:01:13.916Z,10.18
2023-04-18T20:03:41.692Z,9.50
2023-04-18T20:06:09.474Z,9.50
2023-04-18T20:08:37.350Z,8.85
2023-04-18T20:11:04.948Z,10.13
2023-04-18T20:13:32.029Z,10.07
2023-04-18T20:15:59.357Z,8.82
2023-04-18T20:18:26.556Z,9.77
2023-04-18T20:20:53.714Z,9.85
2023-04-18T20:23:21.048Z,10.18
2023-04-18T20:25:48.614Z,10.60
2023-04-18T20:28:15.775Z,10.65
2023-04-18T20:30:44.724Z,11.13
2023-04-18T20:33:11.898Z,10.15
2023-04-18T20:35:39.044Z,10.35
2023-04-18T20:38:08.803Z,10.88
2023-04-18T20:40:36.201Z,10.13
2023-04-18T20:43:03.294Z,8.68
2023-04-18T20:45:31.809Z,10.45
2023-04-18T20:47:59.368Z,10.88
2023-04-18T20:50:26.530Z,11.05
2023-04-18T20:52:53.917Z,10.35
2023-04-18T20:55:21.023Z,11.02
2023-04-18T20:57:48.217Z,10.38
2023-04-18T21:00:15.893Z,10.30
2023-04-18T21:02:44.642Z,10.50
2023-04-18T21:05:11.877Z,8.98
2023-04-18T21:07:39.050Z,10.98
2023-04-18T21:10:06.390Z,10.95
2023-04-18T21:12:33.523Z,10.05
2023-04-18T21:15:00.629Z,11.65
2023-04-18T21:17:27.787Z,11.57
2023-04-18T21:19:55.844Z,10.85
2023-04-18T21:22:23.001Z,9.57
2023-04-18T21:24:50.109Z,11.45
2023-04-18T21:27:17.382Z,11.20
2023-04-18T21:29:44.539Z,11.77
2023-04-18T21:32:11.632Z,11.95
2023-04-18T21:34:38.764Z,11.60
2023-04-18T21:37:05.815Z,11.13
2023-04-18T21:39:32.949Z,10.48
2023-04-18T21:42:01.723Z,11.40
2023-04-18T21:44:28.891Z,12.10
2023-04-18T21:46:57.062Z,11.95
2023-04-18T21:49:24.508Z,12.05
2023-04-18T21:51:51.691Z,12.25
2023-04-18T21:54:18.805Z,11.65
2023-04-18T21:56:45.967Z,12.45
2023-04-18T21:59:13.079Z,11.43
2023-04-18T22:01:40.259Z,11.73
2023-04-18T22:04:07.693Z,13.50
2023-04-18T22:06:35.113Z,12.35
2023-04-18T22:09:02.254Z,11.63
2023-04-18T22:11:29.409Z,13.15
2023-04-18T22:13:58.069Z,13.13
2023-04-18T22:16:25.293Z,13.05
2023-04-18T22:18:52.584Z,13.18
2023-04-18T22:21:19.731Z,12.32
2023-04-18T22:23:46.844Z,13.27
2023-04-18T22:26:14.051Z,13.07
2023-04-18T22:28:41.243Z,13.75
2023-04-18T22:31:08.412Z,13.05
2023-04-18T22:33:35.796Z,12.85
2023-04-18T22:36:02.949Z,11.77
2023-04-18T22:38:30.168Z,14.57
2023-04-18T22:40:57.292Z,14.30
2023-04-18T22:43:24.939Z,13.98
2023-04-18T22:45:52.145Z,11.55
2023-04-18T22:48:19.597Z,13.68
2023-04-18T22:50:47.288Z,12.85
2023-04-18T22:53:15.070Z,14.20
2023-04-18T22:55:43.041Z,14.63
2023-04-18T22:58:10.612Z,13.32
2023-04-18T23:00:38.242Z,15.23
2023-04-18T23:03:05.602Z,13.98
2023-04-18T23:05:34.233Z,14.27
2023-04-18T23:08:01.420Z,14.10
2023-04-18T23:10:28.788Z,13.73
2023-04-18T23:12:56.411Z,15.95
2023-04-18T23:15:23.639Z,14.73
2023-04-18T23:17:54.326Z,15.70
2023-04-18T23:20:21.604Z,14.55
2023-04-18T23:22:51.596Z,15.05
2023-04-18T23:25:19.788Z,14.65
2023-04-18T23:27:47.276Z,15.25
2023-04-18T23:30:14.599Z,15.95
2023-04-18T23:32:41.725Z,14.18
2023-04-18T23:35:09.213Z,14.88
2023-04-18T23:37:36.371Z,14.82
2023-04-18T23:40:06.492Z,14.90
2023-04-18T23:42:37.033Z,14.60
2023-04-18T23:45:05.819Z,15.70
2023-04-18T23:47:33.023Z,14.70
2023-04-18T23:50:00.328Z,14.98
2023-04-18T23:52:27.478Z,15.38
2023-04-18T23:54:55.394Z,15.45
2023-04-18T23:57:22.507Z,14.93
2023-04-18T23:59:49.659Z,15.32
